Lisbonense — CSGA6 — position and weather

sailwx.info

Track history (hours):
 
Tides and Currents Weather Stations Pressure Air Temp Water Temp Dewpoint Dewpoint Depression Visibility Wind Speed Wind Dir Waves Ship Positions

Lisbonense

Last reported at 2017-Sep-21 21:33 UTC. Time now 2017-Sep-23 05:57 UTC.
Position N 38°41' W 009°12'.

Length 47 m.

Type: Ship. MMSI: 263702260.

Date/timePositionNaut miles runAvg speedWind from/ knotsBaromVisibWave heightAir tempDewpointWater temp
2017-Sep-21 21:33N 38°41' W 009°12'0 0.5
2017-Sep-21 21:30N 38°41' W 009°12'1 1.7
2017-Sep-21 20:57N 38°42' W 009°12'2 3.6
2017-Sep-21 20:27N 38°40' W 009°14'2 3.3
2017-Sep-21 19:52N 38°42' W 009°12'2 3.1
2017-Sep-21 19:15N 38°40' W 009°14'0 0.0
2017-Sep-21 19:00N 38°40' W 009°14'2 3.0
2017-Sep-21 18:22N 38°42' W 009°12'2 5.0
2017-Sep-21 17:59N 38°40' W 009°14'2 3.0
2017-Sep-21 17:21N 38°42' W 009°12'2 4.1
2017-Sep-21 16:53N 38°40' W 009°14'2 4.2
2017-Sep-21 16:25N 38°42' W 009°12'2 3.5
2017-Sep-21 15:53N 38°40' W 009°14'2 4.9
2017-Sep-21 15:29N 38°42' W 009°12'1 2.9
2017-Sep-21 15:00N 38°41' W 009°13'0 0.6
2017-Sep-21 14:30N 38°41' W 009°14'3 2.5
2017-Sep-21 13:13N 38°41' W 009°09'210.3
2017-Sep-21 12:59N 38°41' W 009°12'1 2.1
2017-Sep-21 12:30N 38°42' W 009°12'2 3.6
2017-Sep-21 11:58N 38°40' W 009°14'2 3.9
2017-Sep-21 11:28N 38°42' W 009°12'2 3.1
2017-Sep-21 10:51N 38°40' W 009°14'2 4.2
2017-Sep-21 10:23N 38°42' W 009°12'2 4.7
2017-Sep-21 09:59N 38°40' W 009°14'0 0.0
2017-Sep-21 09:20N 38°40' W 009°14'2 3.1
2017-Sep-21 08:47N 38°41' W 009°12'2 5.4
2017-Sep-21 08:28N 38°40' W 009°14'2 3.4
2017-Sep-21 07:53N 38°42' W 009°12'2 3.5
2017-Sep-21 07:21N 38°40' W 009°14'2 3.1
2017-Sep-21 06:48N 38°41' W 009°12'2 3.8
2017-Sep-21 06:21N 38°40' W 009°14'2 5.4
2017-Sep-21 06:00N 38°42' W 009°12'1 2.0
2017-Sep-21 05:28N 38°41' W 009°12'0 0.0
2017-Sep-20 21:34N 38°41' W 009°12'0 0.1
2017-Sep-20 21:28N 38°41' W 009°12'1 2.0
2017-Sep-20 20:57N 38°42' W 009°12'2 4.2
2017-Sep-20 20:29N 38°40' W 009°14'2 3.5
2017-Sep-20 19:56N 38°42' W 009°12'2 3.0
2017-Sep-20 19:19N 38°40' W 009°14'0 0.0
2017-Sep-20 18:55N 38°40' W 009°14'2 3.2
2017-Sep-20 18:20N 38°42' W 009°12'2 4.4
2017-Sep-20 17:56N 38°40' W 009°14'2 3.5
2017-Sep-20 17:23N 38°42' W 009°12'2 3.6
2017-Sep-20 16:51N 38°40' W 009°14'2 4.2
2017-Sep-20 16:24N 38°42' W 009°12'2 3.6
2017-Sep-20 15:52N 38°40' W 009°14'2 4.4
2017-Sep-20 15:26N 38°42' W 009°12'2 3.4
2017-Sep-20 14:53N 38°40' W 009°14'1 0.8
2017-Sep-20 13:27N 38°41' W 009°12'0 0.2
2017-Sep-20 12:58N 38°41' W 009°12'1 1.6
2017-Sep-20 12:21N 38°42' W 009°12'2 4.3
2017-Sep-20 11:54N 38°40' W 009°14'2 3.6
2017-Sep-20 11:22N 38°42' W 009°12'2 4.1
2017-Sep-20 10:53N 38°40' W 009°14'2 3.8
2017-Sep-20 10:23N 38°42' W 009°12'2 3.7
2017-Sep-20 09:52N 38°40' W 009°14'0 0.0
2017-Sep-20 09:28N 38°40' W 009°14'2 3.9
2017-Sep-20 08:58N 38°42' W 009°12'2 3.2
2017-Sep-20 08:22N 38°40' W 009°14'2 4.1
2017-Sep-20 07:54N 38°42' W 009°12'2 4.4
2017-Sep-20 07:28N 38°40' W 009°14'2 4.1
2017-Sep-20 07:00N 38°42' W 009°12'2 3.3
2017-Sep-20 06:25N 38°40' W 009°14'2 4.0
2017-Sep-20 05:56N 38°42' W 009°12'1 1.9
2017-Sep-20 05:23N 38°41' W 009°12'0 0.0
2017-Sep-19 21:37N 38°41' W 009°12'0 0.0
2017-Sep-19 21:27N 38°41' W 009°12'1 1.7
2017-Sep-19 20:51N 38°42' W 009°12'2 4.1
2017-Sep-19 20:23N 38°40' W 009°14'2 3.1
2017-Sep-19 19:49N 38°41' W 009°12'2 4.4
2017-Sep-19 19:26N 38°40' W 009°14'0 0.0
2017-Sep-19 18:59N 38°40' W 009°14'2 3.8
2017-Sep-19 18:28N 38°42' W 009°12'2 3.2
2017-Sep-19 17:52N 38°40' W 009°14'2 4.4
2017-Sep-19 17:25N 38°42' W 009°12'2 4.0
2017-Sep-19 16:57N 38°40' W 009°14'2 3.4
2017-Sep-19 16:23N 38°42' W 009°12'2 4.0
2017-Sep-19 15:54N 38°40' W 009°14'2 4.1
2017-Sep-19 15:26N 38°42' W 009°12'2 4.1
2017-Sep-19 14:58N 38°40' W 009°14'2 3.8
2017-Sep-19 14:28N 38°42' W 009°12'1 2.2
2017-Sep-19 13:59N 38°41' W 009°12'0 0.0
2017-Sep-19 13:29N 38°41' W 009°12'0 0.0
2017-Sep-19 13:00N 38°41' W 009°12'1 2.0
2017-Sep-19 12:29N 38°42' W 009°12'2 3.2
2017-Sep-19 11:52N 38°40' W 009°14'2 4.3
2017-Sep-19 11:26N 38°42' W 009°12'2 3.5
2017-Sep-19 10:53N 38°40' W 009°14'2 4.2
2017-Sep-19 10:25N 38°42' W 009°12'2 4.3
2017-Sep-19 09:58N 38°40' W 009°14'0 0.0
2017-Sep-19 09:25N 38°40' W 009°14'2 3.6
2017-Sep-19 08:54N 38°42' W 009°12'2 4.7
2017-Sep-19 08:29N 38°40' W 009°14'2 3.3
2017-Sep-19 07:54N 38°42' W 009°12'2 3.8
2017-Sep-19 07:24N 38°40' W 009°14'2 3.7
2017-Sep-19 06:53N 38°42' W 009°12'2 5.0
2017-Sep-19 06:30N 38°40' W 009°14'2 3.7
2017-Sep-19 05:59N 38°42' W 009°12'1 1.5
2017-Sep-19 05:17N 38°41' W 009°12'0 0.0
2017-Sep-18 21:28N 38°41' W 009°12'1 1.8
2017-Sep-18 20:53N 38°42' W 009°12'2 4.1
2017-Sep-18 20:25N 38°40' W 009°14'2 4.3
2017-Sep-18 19:58N 38°42' W 009°12'2 4.0
2017-Sep-18 19:30N 38°40' W 009°14'0 0.0
2017-Sep-18 18:54N 38°40' W 009°14'2 3.7
2017-Sep-18 18:23N 38°42' W 009°12'2 4.7
2017-Sep-18 17:59N 38°40' W 009°14'2 3.8
2017-Sep-18 17:29N 38°42' W 009°12'2 3.1
2017-Sep-18 16:52N 38°40' W 009°14'2 4.3
2017-Sep-18 16:25N 38°42' W 009°12'2 4.1
2017-Sep-18 15:57N 38°40' W 009°14'2 3.9
2017-Sep-18 15:27N 38°42' W 009°12'2 3.7
2017-Sep-18 14:56N 38°40' W 009°14'2 4.2
2017-Sep-18 14:28N 38°42' W 009°12'1 1.5
2017-Sep-18 13:45N 38°41' W 009°12'0 0.0
2017-Sep-18 13:15N 38°41' W 009°12'0 0.6
2017-Sep-18 13:01N 38°41' W 009°12'1 1.7
2017-Sep-18 12:27N 38°42' W 009°12'2 3.4
2017-Sep-18 11:53N 38°40' W 009°14'2 4.4
2017-Sep-18 11:27N 38°42' W 009°12'2 4.1
2017-Sep-18 10:59N 38°40' W 009°14'2 3.9
2017-Sep-18 10:30N 38°42' W 009°12'2 3.7
2017-Sep-18 09:58N 38°40' W 009°14'0 0.0
2017-Sep-18 09:19N 38°40' W 009°14'2 5.4
2017-Sep-18 08:58N 38°42' W 009°12'2 4.1
2017-Sep-18 08:30N 38°40' W 009°14'2 3.0
2017-Sep-18 07:52N 38°42' W 009°12'2 3.8
2017-Sep-18 07:22N 38°40' W 009°14'2 5.0
2017-Sep-18 06:58N 38°42' W 009°12'2 3.5
2017-Sep-18 06:25N 38°40' W 009°14'2 4.0
2017-Sep-18 05:56N 38°42' W 009°12'1 2.0
2017-Sep-18 05:25N 38°41' W 009°12'0 0.0
2017-Sep-18 04:58N 38°41' W 009°12'0 0.0
2017-Sep-17 21:12N 38°41' W 009°12'0 0.0
2017-Sep-17 20:59N 38°41' W 009°12'1 1.9
2017-Sep-17 20:26N 38°42' W 009°12'2 4.1
2017-Sep-17 19:58N 38°40' W 009°14'0 0.0
2017-Sep-17 19:25N 38°40' W 009°14'2 3.6
2017-Sep-17 18:53N 38°42' W 009°12'2 2.8
2017-Sep-17 18:12N 38°40' W 009°14'0 0.0
2017-Sep-17 18:00N 38°40' W 009°14'2 3.7
2017-Sep-17 17:28N 38°42' W 009°12'2 3.8
2017-Sep-17 16:58N 38°40' W 009°14'2 3.4
2017-Sep-17 16:24N 38°42' W 009°12'2 4.4
2017-Sep-17 15:58N 38°40' W 009°14'2 3.7
2017-Sep-17 15:27N 38°42' W 009°12'2 3.9
2017-Sep-17 14:57N 38°40' W 009°14'2 4.3
2017-Sep-17 14:30N 38°42' W 009°12'1 1.9
2017-Sep-17 13:58N 38°41' W 009°12'0 0.6
2017-Sep-17 13:28N 38°41' W 009°13'1 2.2
2017-Sep-17 12:55N 38°42' W 009°12'2 4.3
2017-Sep-17 12:28N 38°40' W 009°14'2 3.7
2017-Sep-17 11:57N 38°42' W 009°12'2 3.5
2017-Sep-17 11:24N 38°40' W 009°14'2 4.6
2017-Sep-17 10:59N 38°42' W 009°12'2 3.8
2017-Sep-17 10:28N 38°40' W 009°14'2 3.6
2017-Sep-17 09:56N 38°42' W 009°12'2 4.3
2017-Sep-17 09:29N 38°40' W 009°14'0 0.0
2017-Sep-17 08:55N 38°40' W 009°14'2 3.7
2017-Sep-17 08:24N 38°42' W 009°12'2 4.3
2017-Sep-17 07:58N 38°40' W 009°14'2 3.8
2017-Sep-17 07:27N 38°42' W 009°12'1 1.8
2017-Sep-17 06:53N 38°41' W 009°12'0 0.0
2017-Sep-16 21:01N 38°41' W 009°12'0 0.2
2017-Sep-16 20:57N 38°41' W 009°12'1 1.2
2017-Sep-16 20:21N 38°41' W 009°12'2 4.0
2017-Sep-16 19:55N 38°40' W 009°14'0 0.0
2017-Sep-16 19:28N 38°40' W 009°14'2 2.3
2017-Sep-16 18:47N 38°41' W 009°12'2 4.7
2017-Sep-16 18:27N 38°40' W 009°14'0 0.0
2017-Sep-16 17:55N 38°40' W 009°14'2 4.4
2017-Sep-16 17:28N 38°42' W 009°12'2 3.1
2017-Sep-16 16:52N 38°41' W 009°14'2 4.1
2017-Sep-16 16:23N 38°42' W 009°12'2 4.0
2017-Sep-16 15:54N 38°40' W 009°14'2 4.2
2017-Sep-16 15:27N 38°42' W 009°12'2 4.0
2017-Sep-16 14:59N 38°40' W 009°14'2 3.8
2017-Sep-16 14:29N 38°42' W 009°12'1 1.2
2017-Sep-16 13:37N 38°41' W 009°12'0 0.8
2017-Sep-16 13:30N 38°41' W 009°13'1 1.9
2017-Sep-16 12:55N 38°42' W 009°12'2 3.9
2017-Sep-16 12:26N 38°40' W 009°14'2 4.5
2017-Sep-16 12:00N 38°42' W 009°12'2 3.6
2017-Sep-16 11:28N 38°41' W 009°14'2 4.1
2017-Sep-16 11:00N 38°42' W 009°12'2 3.6
2017-Sep-16 10:28N 38°40' W 009°14'0 0.0
2017-Sep-16 09:55N 38°40' W 009°14'2 4.4
2017-Sep-16 09:29N 38°42' W 009°12'2 3.2
2017-Sep-16 08:53N 38°40' W 009°14'2 4.2
2017-Sep-16 08:26N 38°42' W 009°12'2 4.0
2017-Sep-16 07:57N 38°40' W 009°14'2 3.7
2017-Sep-16 07:26N 38°42' W 009°12'2 3.5
2017-Sep-16 06:53N 38°40' W 009°14'2 5.1
2017-Sep-16 06:30N 38°42' W 009°12'1 1.4
2017-Sep-16 05:47N 38°41' W 009°12'0 0.0
2017-Sep-15 21:36N 38°41' W 009°12'0 0.1
2017-Sep-15 21:29N 38°41' W 009°12'1 1.9
2017-Sep-15 20:55N 38°42' W 009°12'2 3.8
2017-Sep-15 20:25N 38°40' W 009°14'2 3.8
2017-Sep-15 19:55N 38°42' W 009°12'2 4.3
2017-Sep-15 19:29N 38°40' W 009°14'1 1.6
2017-Sep-15 18:54N 38°41' W 009°13'0 0.3
2017-Sep-15 18:14N 38°41' W 009°12'1 4.3
2017-Sep-15 17:58N 38°40' W 009°14'2 2.6
2017-Sep-15 17:18N 38°41' W 009°12'2 4.7
2017-Sep-15 16:57N 38°40' W 009°14'2 3.4
2017-Sep-15 16:23N 38°42' W 009°12'2 4.9
2017-Sep-15 16:00N 38°40' W 009°14'0 0.4
2017-Sep-15 15:05N 38°41' W 009°13'0 5.0
2017-Sep-15 15:00N 38°40' W 009°14'2 3.9
2017-Sep-15 14:30N 38°42' W 009°12'1 0.8
2017-Sep-15 13:15N 38°41' W 009°12'0 0.0
2017-Sep-15 12:59N 38°41' W 009°12'1 2.0
2017-Sep-15 12:27N 38°42' W 009°12'2 3.7
2017-Sep-15 11:57N 38°40' W 009°14'2 3.6
2017-Sep-15 11:25N 38°42' W 009°12'2 3.9
2017-Sep-15 10:55N 38°40' W 009°14'2 4.2
2017-Sep-15 10:28N 38°42' W 009°12'2 4.1
2017-Sep-15 10:00N 38°40' W 009°14'0 0.0
2017-Sep-15 09:30N 38°40' W 009°14'2 3.1
2017-Sep-15 08:53N 38°42' W 009°12'2 3.8
2017-Sep-15 08:23N 38°40' W 009°14'2 4.3
2017-Sep-15 07:56N 38°42' W 009°12'2 4.1
2017-Sep-15 07:28N 38°40' W 009°14'2 3.7
2017-Sep-15 06:57N 38°42' W 009°12'2 3.9
2017-Sep-15 06:28N 38°40' W 009°14'2 3.9
2017-Sep-15 05:58N 38°42' W 009°12'1 0.1
2017-Sep-14 21:22N 38°41' W 009°13'1 3.1
2017-Sep-14 20:58N 38°42' W 009°12'2 3.6
2017-Sep-14 20:27N 38°40' W 009°14'2 3.4
2017-Sep-14 19:53N 38°42' W 009°12'2 2.9
2017-Sep-14 19:14N 38°40' W 009°14'0 0.0
2017-Sep-14 18:53N 38°40' W 009°14'2 4.9
2017-Sep-14 18:30N 38°42' W 009°12'2 3.8
2017-Sep-14 17:59N 38°40' W 009°14'2 3.1
2017-Sep-14 17:23N 38°42' W 009°12'2 3.9
2017-Sep-14 16:53N 38°40' W 009°14'2 3.5
2017-Sep-14 16:20N 38°42' W 009°12'2 3.3
2017-Sep-14 15:51N 38°41' W 009°14'2 3.2
2017-Sep-14 15:20N 38°42' W 009°12'2 4.5
2017-Sep-14 14:55N 38°40' W 009°14'2 4.6
2017-Sep-14 14:30N 38°42' W 009°12'1 0.7
2017-Sep-14 12:56N 38°41' W 009°13'1 2.0
2017-Sep-14 12:23N 38°42' W 009°12'2 3.8
2017-Sep-14 11:53N 38°40' W 009°14'2 3.8
2017-Sep-14 11:23N 38°42' W 009°12'2 4.2
2017-Sep-14 10:56N 38°40' W 009°14'2 3.6
2017-Sep-14 10:23N 38°42' W 009°12'2 4.8
2017-Sep-14 09:59N 38°40' W 009°14'0 0.0
2017-Sep-14 09:29N 38°40' W 009°14'2 3.7
2017-Sep-14 08:58N 38°42' W 009°12'2 4.1
2017-Sep-14 08:30N 38°40' W 009°14'2 3.4
2017-Sep-14 07:57N 38°42' W 009°12'2 4.1
2017-Sep-14 07:28N 38°40' W 009°14'2 3.3
2017-Sep-14 06:53N 38°42' W 009°12'2 4.9
2017-Sep-14 06:30N 38°40' W 009°14'2 3.7
2017-Sep-14 05:58N 38°42' W 009°12'1 2.0
2017-Sep-14 05:28N 38°41' W 009°12'0 0.0
2017-Sep-13 21:32N 38°41' W 009°12'0 0.0
2017-Sep-13 21:28N 38°41' W 009°12'1 1.8
2017-Sep-13 20:53N 38°42' W 009°12'2 4.4
2017-Sep-13 20:27N 38°40' W 009°14'2 3.8
2017-Sep-13 19:56N 38°42' W 009°12'2 4.3
2017-Sep-13 19:30N 38°40' W 009°14'0 0.0
2017-Sep-13 18:52N 38°40' W 009°14'2 4.6
2017-Sep-13 18:27N 38°42' W 009°12'2 3.9
2017-Sep-13 17:58N 38°40' W 009°14'2 3.6
2017-Sep-13 17:26N 38°42' W 009°12'2 3.4
2017-Sep-13 16:53N 38°40' W 009°14'2 3.7
2017-Sep-13 16:22N 38°42' W 009°12'2 4.0
2017-Sep-13 15:53N 38°40' W 009°14'2 3.9
2017-Sep-13 15:24N 38°42' W 009°12'2 3.8
2017-Sep-13 14:54N 38°40' W 009°14'2 4.8
2017-Sep-13 14:30N 38°42' W 009°12'1 1.5
2017-Sep-13 13:50N 38°41' W 009°12'0 0.0
2017-Sep-13 13:26N 38°41' W 009°12'0 0.0
2017-Sep-13 12:59N 38°41' W 009°12'1 1.7
2017-Sep-13 12:21N 38°42' W 009°12'2 5.0
2017-Sep-13 11:58N 38°40' W 009°14'2 3.7
2017-Sep-13 11:27N 38°42' W 009°12'2 3.8
2017-Sep-13 10:56N 38°40' W 009°14'2 3.7
2017-Sep-13 10:25N 38°42' W 009°12'2 4.1
2017-Sep-13 09:57N 38°40' W 009°14'0 0.0
2017-Sep-13 09:30N 38°40' W 009°14'2 3.1
2017-Sep-13 08:53N 38°42' W 009°12'2 4.1
2017-Sep-13 08:25N 38°40' W 009°14'2 4.3
2017-Sep-13 07:58N 38°42' W 009°12'2 3.2
2017-Sep-13 07:23N 38°40' W 009°14'2 3.9
2017-Sep-13 06:53N 38°42' W 009°12'2 4.0
2017-Sep-13 06:24N 38°40' W 009°14'2 4.5
2017-Sep-13 05:59N 38°42' W 009°12'1 1.4
2017-Sep-13 05:13N 38°41' W 009°12'0 0.0
2017-Sep-12 21:36N 38°41' W 009°12'0 0.0
2017-Sep-12 21:24N 38°41' W 009°12'1 2.4
2017-Sep-12 20:57N 38°42' W 009°12'2 3.5
2017-Sep-12 20:25N 38°40' W 009°14'2 4.4
2017-Sep-12 19:58N 38°42' W 009°12'2 3.6
2017-Sep-12 19:26N 38°40' W 009°14'0 0.0
2017-Sep-12 18:53N 38°40' W 009°14'2 3.7
2017-Sep-12 18:21N 38°42' W 009°12'2 3.8
2017-Sep-12 17:51N 38°40' W 009°14'3 4.1
2017-Sep-12 17:05N 38°41' W 009°10'  
Track history (hours):
 
Tides and Currents Weather Stations Pressure Air Temp Water Temp Dewpoint Dewpoint Depression Visibility Wind Speed Wind Dir Waves Ship Positions

Lisbonense

Last reported at 2017-Sep-21 21:33 UTC. Time now 2017-Sep-23 05:57 UTC.
Position N 38°41' W 009°12'.

Length 47 m.

Type: Ship. MMSI: 263702260.

Date/timePositionNaut miles runAvg speedWind from/ knotsBaromVisibWave heightAir tempDewpointWater temp
2017-Sep-21 21:33N 38°41' W 009°12'0 0.5
2017-Sep-21 21:30N 38°41' W 009°12'1 1.7
2017-Sep-21 20:57N 38°42' W 009°12'2 3.6
2017-Sep-21 20:27N 38°40' W 009°14'2 3.3
2017-Sep-21 19:52N 38°42' W 009°12'2 3.1
2017-Sep-21 19:15N 38°40' W 009°14'0 0.0
2017-Sep-21 19:00N 38°40' W 009°14'2 3.0
2017-Sep-21 18:22N 38°42' W 009°12'2 5.0
2017-Sep-21 17:59N 38°40' W 009°14'2 3.0
2017-Sep-21 17:21N 38°42' W 009°12'2 4.1
2017-Sep-21 16:53N 38°40' W 009°14'2 4.2
2017-Sep-21 16:25N 38°42' W 009°12'2 3.5
2017-Sep-21 15:53N 38°40' W 009°14'2 4.9
2017-Sep-21 15:29N 38°42' W 009°12'1 2.9
2017-Sep-21 15:00N 38°41' W 009°13'0 0.6
2017-Sep-21 14:30N 38°41' W 009°14'3 2.5
2017-Sep-21 13:13N 38°41' W 009°09'210.3
2017-Sep-21 12:59N 38°41' W 009°12'1 2.1
2017-Sep-21 12:30N 38°42' W 009°12'2 3.6
2017-Sep-21 11:58N 38°40' W 009°14'2 3.9
2017-Sep-21 11:28N 38°42' W 009°12'2 3.1
2017-Sep-21 10:51N 38°40' W 009°14'2 4.2
2017-Sep-21 10:23N 38°42' W 009°12'2 4.7
2017-Sep-21 09:59N 38°40' W 009°14'0 0.0
2017-Sep-21 09:20N 38°40' W 009°14'2 3.1
2017-Sep-21 08:47N 38°41' W 009°12'2 5.4
2017-Sep-21 08:28N 38°40' W 009°14'2 3.4
2017-Sep-21 07:53N 38°42' W 009°12'2 3.5
2017-Sep-21 07:21N 38°40' W 009°14'2 3.1
2017-Sep-21 06:48N 38°41' W 009°12'2 3.8
2017-Sep-21 06:21N 38°40' W 009°14'2 5.4
2017-Sep-21 06:00N 38°42' W 009°12'1 2.0
2017-Sep-21 05:28N 38°41' W 009°12'0 0.0
2017-Sep-20 21:34N 38°41' W 009°12'0 0.1
2017-Sep-20 21:28N 38°41' W 009°12'1 2.0
2017-Sep-20 20:57N 38°42' W 009°12'2 4.2
2017-Sep-20 20:29N 38°40' W 009°14'2 3.5
2017-Sep-20 19:56N 38°42' W 009°12'2 3.0
2017-Sep-20 19:19N 38°40' W 009°14'0 0.0
2017-Sep-20 18:55N 38°40' W 009°14'2 3.2
2017-Sep-20 18:20N 38°42' W 009°12'2 4.4
2017-Sep-20 17:56N 38°40' W 009°14'2 3.5
2017-Sep-20 17:23N 38°42' W 009°12'2 3.6
2017-Sep-20 16:51N 38°40' W 009°14'2 4.2
2017-Sep-20 16:24N 38°42' W 009°12'2 3.6
2017-Sep-20 15:52N 38°40' W 009°14'2 4.4
2017-Sep-20 15:26N 38°42' W 009°12'2 3.4
2017-Sep-20 14:53N 38°40' W 009°14'1 0.8
2017-Sep-20 13:27N 38°41' W 009°12'0 0.2
2017-Sep-20 12:58N 38°41' W 009°12'1 1.6
2017-Sep-20 12:21N 38°42' W 009°12'2 4.3
2017-Sep-20 11:54N 38°40' W 009°14'2 3.6
2017-Sep-20 11:22N 38°42' W 009°12'2 4.1
2017-Sep-20 10:53N 38°40' W 009°14'2 3.8
2017-Sep-20 10:23N 38°42' W 009°12'2 3.7
2017-Sep-20 09:52N 38°40' W 009°14'0 0.0
2017-Sep-20 09:28N 38°40' W 009°14'2 3.9
2017-Sep-20 08:58N 38°42' W 009°12'2 3.2
2017-Sep-20 08:22N 38°40' W 009°14'2 4.1
2017-Sep-20 07:54N 38°42' W 009°12'2 4.4
2017-Sep-20 07:28N 38°40' W 009°14'2 4.1
2017-Sep-20 07:00N 38°42' W 009°12'2 3.3
2017-Sep-20 06:25N 38°40' W 009°14'2 4.0
2017-Sep-20 05:56N 38°42' W 009°12'1 1.9
2017-Sep-20 05:23N 38°41' W 009°12'0 0.0
2017-Sep-19 21:37N 38°41' W 009°12'0 0.0
2017-Sep-19 21:27N 38°41' W 009°12'1 1.7
2017-Sep-19 20:51N 38°42' W 009°12'2 4.1
2017-Sep-19 20:23N 38°40' W 009°14'2 3.1
2017-Sep-19 19:49N 38°41' W 009°12'2 4.4
2017-Sep-19 19:26N 38°40' W 009°14'0 0.0
2017-Sep-19 18:59N 38°40' W 009°14'2 3.8
2017-Sep-19 18:28N 38°42' W 009°12'2 3.2
2017-Sep-19 17:52N 38°40' W 009°14'2 4.4
2017-Sep-19 17:25N 38°42' W 009°12'2 4.0
2017-Sep-19 16:57N 38°40' W 009°14'2 3.4
2017-Sep-19 16:23N 38°42' W 009°12'2 4.0
2017-Sep-19 15:54N 38°40' W 009°14'2 4.1
2017-Sep-19 15:26N 38°42' W 009°12'2 4.1
2017-Sep-19 14:58N 38°40' W 009°14'2 3.8
2017-Sep-19 14:28N 38°42' W 009°12'1 2.2
2017-Sep-19 13:59N 38°41' W 009°12'0 0.0
2017-Sep-19 13:29N 38°41' W 009°12'0 0.0
2017-Sep-19 13:00N 38°41' W 009°12'1 2.0
2017-Sep-19 12:29N 38°42' W 009°12'2 3.2
2017-Sep-19 11:52N 38°40' W 009°14'2 4.3
2017-Sep-19 11:26N 38°42' W 009°12'2 3.5
2017-Sep-19 10:53N 38°40' W 009°14'2 4.2
2017-Sep-19 10:25N 38°42' W 009°12'2 4.3
2017-Sep-19 09:58N 38°40' W 009°14'0 0.0
2017-Sep-19 09:25N 38°40' W 009°14'2 3.6
2017-Sep-19 08:54N 38°42' W 009°12'2 4.7
2017-Sep-19 08:29N 38°40' W 009°14'2 3.3
2017-Sep-19 07:54N 38°42' W 009°12'2 3.8
2017-Sep-19 07:24N 38°40' W 009°14'2 3.7
2017-Sep-19 06:53N 38°42' W 009°12'2 5.0
2017-Sep-19 06:30N 38°40' W 009°14'2 3.7
2017-Sep-19 05:59N 38°42' W 009°12'1 1.5
2017-Sep-19 05:17N 38°41' W 009°12'0 0.0
2017-Sep-18 21:28N 38°41' W 009°12'1 1.8
2017-Sep-18 20:53N 38°42' W 009°12'2 4.1
2017-Sep-18 20:25N 38°40' W 009°14'2 4.3
2017-Sep-18 19:58N 38°42' W 009°12'2 4.0
2017-Sep-18 19:30N 38°40' W 009°14'0 0.0
2017-Sep-18 18:54N 38°40' W 009°14'2 3.7
2017-Sep-18 18:23N 38°42' W 009°12'2 4.7
2017-Sep-18 17:59N 38°40' W 009°14'2 3.8
2017-Sep-18 17:29N 38°42' W 009°12'2 3.1
2017-Sep-18 16:52N 38°40' W 009°14'2 4.3
2017-Sep-18 16:25N 38°42' W 009°12'2 4.1
2017-Sep-18 15:57N 38°40' W 009°14'2 3.9
2017-Sep-18 15:27N 38°42' W 009°12'2 3.7
2017-Sep-18 14:56N 38°40' W 009°14'2 4.2
2017-Sep-18 14:28N 38°42' W 009°12'1 1.5
2017-Sep-18 13:45N 38°41' W 009°12'0 0.0
2017-Sep-18 13:15N 38°41' W 009°12'0 0.6
2017-Sep-18 13:01N 38°41' W 009°12'1 1.7
2017-Sep-18 12:27N 38°42' W 009°12'2 3.4
2017-Sep-18 11:53N 38°40' W 009°14'2 4.4
2017-Sep-18 11:27N 38°42' W 009°12'2 4.1
2017-Sep-18 10:59N 38°40' W 009°14'2 3.9
2017-Sep-18 10:30N 38°42' W 009°12'2 3.7
2017-Sep-18 09:58N 38°40' W 009°14'0 0.0
2017-Sep-18 09:19N 38°40' W 009°14'2 5.4
2017-Sep-18 08:58N 38°42' W 009°12'2 4.1
2017-Sep-18 08:30N 38°40' W 009°14'2 3.0
2017-Sep-18 07:52N 38°42' W 009°12'2 3.8
2017-Sep-18 07:22N 38°40' W 009°14'2 5.0
2017-Sep-18 06:58N 38°42' W 009°12'2 3.5
2017-Sep-18 06:25N 38°40' W 009°14'2 4.0
2017-Sep-18 05:56N 38°42' W 009°12'1 2.0
2017-Sep-18 05:25N 38°41' W 009°12'0 0.0
2017-Sep-18 04:58N 38°41' W 009°12'0 0.0
2017-Sep-17 21:12N 38°41' W 009°12'0 0.0
2017-Sep-17 20:59N 38°41' W 009°12'1 1.9
2017-Sep-17 20:26N 38°42' W 009°12'2 4.1
2017-Sep-17 19:58N 38°40' W 009°14'0 0.0
2017-Sep-17 19:25N 38°40' W 009°14'2 3.6
2017-Sep-17 18:53N 38°42' W 009°12'2 2.8
2017-Sep-17 18:12N 38°40' W 009°14'0 0.0
2017-Sep-17 18:00N 38°40' W 009°14'2 3.7
2017-Sep-17 17:28N 38°42' W 009°12'2 3.8
2017-Sep-17 16:58N 38°40' W 009°14'2 3.4
2017-Sep-17 16:24N 38°42' W 009°12'2 4.4
2017-Sep-17 15:58N 38°40' W 009°14'2 3.7
2017-Sep-17 15:27N 38°42' W 009°12'2 3.9
2017-Sep-17 14:57N 38°40' W 009°14'2 4.3
2017-Sep-17 14:30N 38°42' W 009°12'1 1.9
2017-Sep-17 13:58N 38°41' W 009°12'0 0.6
2017-Sep-17 13:28N 38°41' W 009°13'1 2.2
2017-Sep-17 12:55N 38°42' W 009°12'2 4.3
2017-Sep-17 12:28N 38°40' W 009°14'2 3.7
2017-Sep-17 11:57N 38°42' W 009°12'2 3.5
2017-Sep-17 11:24N 38°40' W 009°14'2 4.6
2017-Sep-17 10:59N 38°42' W 009°12'2 3.8
2017-Sep-17 10:28N 38°40' W 009°14'2 3.6
2017-Sep-17 09:56N 38°42' W 009°12'2 4.3
2017-Sep-17 09:29N 38°40' W 009°14'0 0.0
2017-Sep-17 08:55N 38°40' W 009°14'2 3.7
2017-Sep-17 08:24N 38°42' W 009°12'2 4.3
2017-Sep-17 07:58N 38°40' W 009°14'2 3.8
2017-Sep-17 07:27N 38°42' W 009°12'1 1.8
2017-Sep-17 06:53N 38°41' W 009°12'0 0.0
2017-Sep-16 21:01N 38°41' W 009°12'0 0.2
2017-Sep-16 20:57N 38°41' W 009°12'1 1.2
2017-Sep-16 20:21N 38°41' W 009°12'2 4.0
2017-Sep-16 19:55N 38°40' W 009°14'0 0.0
2017-Sep-16 19:28N 38°40' W 009°14'2 2.3
2017-Sep-16 18:47N 38°41' W 009°12'2 4.7
2017-Sep-16 18:27N 38°40' W 009°14'0 0.0
2017-Sep-16 17:55N 38°40' W 009°14'2 4.4
2017-Sep-16 17:28N 38°42' W 009°12'2 3.1
2017-Sep-16 16:52N 38°41' W 009°14'2 4.1
2017-Sep-16 16:23N 38°42' W 009°12'2 4.0
2017-Sep-16 15:54N 38°40' W 009°14'2 4.2
2017-Sep-16 15:27N 38°42' W 009°12'2 4.0
2017-Sep-16 14:59N 38°40' W 009°14'2 3.8
2017-Sep-16 14:29N 38°42' W 009°12'1 1.2
2017-Sep-16 13:37N 38°41' W 009°12'0 0.8
2017-Sep-16 13:30N 38°41' W 009°13'1 1.9
2017-Sep-16 12:55N 38°42' W 009°12'2 3.9
2017-Sep-16 12:26N 38°40' W 009°14'2 4.5
2017-Sep-16 12:00N 38°42' W 009°12'2 3.6
2017-Sep-16 11:28N 38°41' W 009°14'2 4.1
2017-Sep-16 11:00N 38°42' W 009°12'2 3.6
2017-Sep-16 10:28N 38°40' W 009°14'0 0.0
2017-Sep-16 09:55N 38°40' W 009°14'2 4.4
2017-Sep-16 09:29N 38°42' W 009°12'2 3.2
2017-Sep-16 08:53N 38°40' W 009°14'2 4.2
2017-Sep-16 08:26N 38°42' W 009°12'2 4.0
2017-Sep-16 07:57N 38°40' W 009°14'2 3.7
2017-Sep-16 07:26N 38°42' W 009°12'2 3.5
2017-Sep-16 06:53N 38°40' W 009°14'2 5.1
2017-Sep-16 06:30N 38°42' W 009°12'1 1.4
2017-Sep-16 05:47N 38°41' W 009°12'0 0.0
2017-Sep-15 21:36N 38°41' W 009°12'0 0.1
2017-Sep-15 21:29N 38°41' W 009°12'1 1.9
2017-Sep-15 20:55N 38°42' W 009°12'2 3.8
2017-Sep-15 20:25N 38°40' W 009°14'2 3.8
2017-Sep-15 19:55N 38°42' W 009°12'2 4.3
2017-Sep-15 19:29N 38°40' W 009°14'1 1.6
2017-Sep-15 18:54N 38°41' W 009°13'0 0.3
2017-Sep-15 18:14N 38°41' W 009°12'1 4.3
2017-Sep-15 17:58N 38°40' W 009°14'2 2.6
2017-Sep-15 17:18N 38°41' W 009°12'2 4.7
2017-Sep-15 16:57N 38°40' W 009°14'2 3.4
2017-Sep-15 16:23N 38°42' W 009°12'2 4.9
2017-Sep-15 16:00N 38°40' W 009°14'0 0.4
2017-Sep-15 15:05N 38°41' W 009°13'0 5.0
2017-Sep-15 15:00N 38°40' W 009°14'2 3.9
2017-Sep-15 14:30N 38°42' W 009°12'1 0.8
2017-Sep-15 13:15N 38°41' W 009°12'0 0.0
2017-Sep-15 12:59N 38°41' W 009°12'1 2.0
2017-Sep-15 12:27N 38°42' W 009°12'2 3.7
2017-Sep-15 11:57N 38°40' W 009°14'2 3.6
2017-Sep-15 11:25N 38°42' W 009°12'2 3.9
2017-Sep-15 10:55N 38°40' W 009°14'2 4.2
2017-Sep-15 10:28N 38°42' W 009°12'2 4.1
2017-Sep-15 10:00N 38°40' W 009°14'0 0.0
2017-Sep-15 09:30N 38°40' W 009°14'2 3.1
2017-Sep-15 08:53N 38°42' W 009°12'2 3.8
2017-Sep-15 08:23N 38°40' W 009°14'2 4.3
2017-Sep-15 07:56N 38°42' W 009°12'2 4.1
2017-Sep-15 07:28N 38°40' W 009°14'2 3.7
2017-Sep-15 06:57N 38°42' W 009°12'2 3.9
2017-Sep-15 06:28N 38°40' W 009°14'2 3.9
2017-Sep-15 05:58N 38°42' W 009°12'1 0.1
2017-Sep-14 21:22N 38°41' W 009°13'1 3.1
2017-Sep-14 20:58N 38°42' W 009°12'2 3.6
2017-Sep-14 20:27N 38°40' W 009°14'2 3.4
2017-Sep-14 19:53N 38°42' W 009°12'2 2.9
2017-Sep-14 19:14N 38°40' W 009°14'0 0.0
2017-Sep-14 18:53N 38°40' W 009°14'2 4.9
2017-Sep-14 18:30N 38°42' W 009°12'2 3.8
2017-Sep-14 17:59N 38°40' W 009°14'2 3.1
2017-Sep-14 17:23N 38°42' W 009°12'2 3.9
2017-Sep-14 16:53N 38°40' W 009°14'2 3.5
2017-Sep-14 16:20N 38°42' W 009°12'2 3.3
2017-Sep-14 15:51N 38°41' W 009°14'2 3.2
2017-Sep-14 15:20N 38°42' W 009°12'2 4.5
2017-Sep-14 14:55N 38°40' W 009°14'2 4.6
2017-Sep-14 14:30N 38°42' W 009°12'1 0.7
2017-Sep-14 12:56N 38°41' W 009°13'1 2.0
2017-Sep-14 12:23N 38°42' W 009°12'2 3.8
2017-Sep-14 11:53N 38°40' W 009°14'2 3.8
2017-Sep-14 11:23N 38°42' W 009°12'2 4.2
2017-Sep-14 10:56N 38°40' W 009°14'2 3.6
2017-Sep-14 10:23N 38°42' W 009°12'2 4.8
2017-Sep-14 09:59N 38°40' W 009°14'0 0.0
2017-Sep-14 09:29N 38°40' W 009°14'2 3.7
2017-Sep-14 08:58N 38°42' W 009°12'2 4.1
2017-Sep-14 08:30N 38°40' W 009°14'2 3.4
2017-Sep-14 07:57N 38°42' W 009°12'2 4.1
2017-Sep-14 07:28N 38°40' W 009°14'2 3.3
2017-Sep-14 06:53N 38°42' W 009°12'2 4.9
2017-Sep-14 06:30N 38°40' W 009°14'2 3.7
2017-Sep-14 05:58N 38°42' W 009°12'1 2.0
2017-Sep-14 05:28N 38°41' W 009°12'0 0.0
2017-Sep-13 21:32N 38°41' W 009°12'0 0.0
2017-Sep-13 21:28N 38°41' W 009°12'1 1.8
2017-Sep-13 20:53N 38°42' W 009°12'2 4.4
2017-Sep-13 20:27N 38°40' W 009°14'2 3.8
2017-Sep-13 19:56N 38°42' W 009°12'2 4.3
2017-Sep-13 19:30N 38°40' W 009°14'0 0.0
2017-Sep-13 18:52N 38°40' W 009°14'2 4.6
2017-Sep-13 18:27N 38°42' W 009°12'2 3.9
2017-Sep-13 17:58N 38°40' W 009°14'2 3.6
2017-Sep-13 17:26N 38°42' W 009°12'2 3.4
2017-Sep-13 16:53N 38°40' W 009°14'2 3.7
2017-Sep-13 16:22N 38°42' W 009°12'2 4.0
2017-Sep-13 15:53N 38°40' W 009°14'2 3.9
2017-Sep-13 15:24N 38°42' W 009°12'2 3.8
2017-Sep-13 14:54N 38°40' W 009°14'2 4.8
2017-Sep-13 14:30N 38°42' W 009°12'1 1.5
2017-Sep-13 13:50N 38°41' W 009°12'0 0.0
2017-Sep-13 13:26N 38°41' W 009°12'0 0.0
2017-Sep-13 12:59N 38°41' W 009°12'1 1.7
2017-Sep-13 12:21N 38°42' W 009°12'2 5.0
2017-Sep-13 11:58N 38°40' W 009°14'2 3.7
2017-Sep-13 11:27N 38°42' W 009°12'2 3.8
2017-Sep-13 10:56N 38°40' W 009°14'2 3.7
2017-Sep-13 10:25N 38°42' W 009°12'2 4.1
2017-Sep-13 09:57N 38°40' W 009°14'0 0.0
2017-Sep-13 09:30N 38°40' W 009°14'2 3.1
2017-Sep-13 08:53N 38°42' W 009°12'2 4.1
2017-Sep-13 08:25N 38°40' W 009°14'2 4.3
2017-Sep-13 07:58N 38°42' W 009°12'2 3.2
2017-Sep-13 07:23N 38°40' W 009°14'2 3.9
2017-Sep-13 06:53N 38°42' W 009°12'2 4.0
2017-Sep-13 06:24N 38°40' W 009°14'2 4.5
2017-Sep-13 05:59N 38°42' W 009°12'1 1.4
2017-Sep-13 05:13N 38°41' W 009°12'0 0.0
2017-Sep-12 21:36N 38°41' W 009°12'0 0.0
2017-Sep-12 21:24N 38°41' W 009°12'1 2.4
2017-Sep-12 20:57N 38°42' W 009°12'2 3.5
2017-Sep-12 20:25N 38°40' W 009°14'2 4.4
2017-Sep-12 19:58N 38°42' W 009°12'2 3.6
2017-Sep-12 19:26N 38°40' W 009°14'0 0.0
2017-Sep-12 18:53N 38°40' W 009°14'2 3.7
2017-Sep-12 18:21N 38°42' W 009°12'2 3.8
2017-Sep-12 17:51N 38°40' W 009°14'3 4.1
2017-Sep-12 17:05N 38°41' W 009°10'  

Dump ship's entire track history